Pecos, TX

12:24 AM CDT on July 25, 2014 (GMT -0500)
Fort Stockton-Pecos County (KFST) Elev 3009 ft | 30.91 °N, 102.92 °W | Change Station

Current weather conditions updated 31 minutes ago

Clear
Clear
82 °F
Feels Like 82 °F
N
9
Wind Variable Wind from SSE

Today is forecast to be Warmer than yesterday.

Today
High -- | Low -- °F
--% Chance of Precip.
Yesterday
High -- | Low -- °F
Precip. -- in
7:06 AM 8:55 PM
Waning Crescent, 3% visible
Pressure 29.92 in
Visibility 10.0 miles
Clouds Clear
Heat Index 82 °F
Dew Point 59 °F
Humidity 45%
Rainfall 0.00 in
Snow Depth Not available.
UV 0 out of 12
Pollen 4.60 out of 12
Air Quality Not available.
Flu Activity Not available.
METAR KFST 250453Z AUTO 16008KT 10SM CLR 28/15 A3008 RMK AO2 SLP131 T02780150

More Conditions Fewer Conditions

Pressure 29.92 in
Visibility 10.0 miles
Clouds Clear
Heat Index 82 °F
Dew Point 59 °F
Humidity 45%
Rainfall 0.00 in
Snow Depth Not available.
UV 0 out of 12
Pollen 4.60 out of 12
Air Quality Not available.
Flu Activity Not available.
METAR KFST 250453Z AUTO 16008KT 10SM CLR 28/15 A3008 RMK AO2 SLP131 T02780150

More Conditions Fewer Conditions

10-Day Weather Forecast

Almanac

Astronomy

Jul. 25, 2014 Rise Set
Actual Time 7:06 AM CDT 8:55 PM CDT
Civil Twilight 6:39 AM CDT 9:22 PM CDT
Nautical Twilight 6:07 AM CDT 9:54 PM CDT
Astronomical Twilight 5:33 AM CDT 10:28 PM CDT
Moon 6:05 AM CDT 7:57 PM CDT
Length of Visible Light 14h 42m
Length of Day
13h 48m
Tomorrow will be 1m 15s shorter.
Waning Crescent, 3% of the Moon is Illuminated
Today
Waning Crescent
Jul 26
New
Aug 3
First Quarter
Aug 10
Full
Aug 17
Last Quarter

Today's Extremes

State Highs State Lows

Community

WunderPhotos

Upload Photos

1,737,245 photos uploaded!

Nearby

Snow Depth

Station Depth Elevation
No new snow has been reported.

Earthquake Activity

City Distance Mag. Time & Date
No recent earthquake activity has been reported nearby.
Minimum magnitude displayed is 2.5.

Coastal Water Temperatures

Place Temperature
No Stations Reporting

Nearby Weather Stations

Station Location Temp. Heat Index Dew Point Humidity Wind Precip. Elev Updated Type
MesoWest TOYAH , Pecos, TX 90 °F 87 °F - - SE  at  2 mph 0.00 in / hr 2823 ft 9:30 PM CDT MADIS
MesoWest PECOS , Barstow, TX 89 °F 86 °F - - North  at  - 0.00 in / hr 2573 ft 9:55 PM CDT MADIS
MesoWest GOZAR , Toyah, TX 91 °F 87 °F - - North  at  - 0.00 in / hr 3427 ft 9:50 PM CDT MADIS

Show More Stations Show Fewer Stations